createdAt,value
2022-11-30T00:00:29.443Z,24.47
2022-11-30T00:03:00.870Z,24.46
2022-11-30T00:05:33.931Z,24.45
2022-11-30T00:08:05.520Z,24.42
2022-11-30T00:10:36.250Z,24.40
2022-11-30T00:13:06.780Z,24.38
2022-11-30T00:15:38.669Z,24.38
2022-11-30T00:18:08.841Z,24.37
2022-11-30T00:20:41.073Z,24.37
2022-11-30T00:23:11.473Z,24.35
2022-11-30T00:25:42.282Z,24.34
2022-11-30T00:28:12.736Z,24.30
2022-11-30T00:30:43.085Z,24.28
2022-11-30T00:33:13.482Z,24.28
2022-11-30T00:35:46.550Z,24.27
2022-11-30T00:38:17.168Z,24.26
2022-11-30T00:40:47.633Z,24.24
2022-11-30T00:43:17.664Z,24.25
2022-11-30T00:45:48.301Z,24.24
2022-11-30T00:48:18.909Z,24.23
2022-11-30T00:50:51.551Z,24.24
2022-11-30T00:53:23.392Z,24.24
2022-11-30T00:55:53.754Z,24.22
2022-11-30T00:58:23.565Z,24.20
2022-11-30T01:00:54.328Z,24.19
2022-11-30T01:03:24.395Z,24.16
2022-11-30T01:05:56.882Z,24.13
2022-11-30T01:08:27.089Z,24.09
2022-11-30T01:10:58.262Z,24.07
2022-11-30T01:13:29.221Z,24.05
2022-11-30T01:16:00.274Z,24.05
2022-11-30T01:18:30.377Z,24.05
2022-11-30T01:21:02.983Z,24.05
2022-11-30T01:23:33.438Z,24.06
2022-11-30T01:26:03.573Z,24.06
2022-11-30T01:28:34.497Z,24.06
2022-11-30T01:31:07.920Z,24.07
2022-11-30T01:33:39.141Z,24.08
2022-11-30T01:36:16.605Z,24.07
2022-11-30T01:38:49.903Z,24.06
2022-11-30T01:41:24.678Z,24.06
2022-11-30T01:43:59.094Z,24.05
2022-11-30T01:46:36.900Z,24.03
2022-11-30T01:49:18.576Z,24.00
2022-11-30T01:52:01.010Z,23.97
2022-11-30T01:54:38.872Z,23.95
2022-11-30T01:57:30.713Z,23.93
2022-11-30T02:00:05.334Z,23.91
2022-11-30T02:02:46.548Z,23.89
2022-11-30T02:05:18.797Z,23.89
2022-11-30T02:07:51.864Z,23.89
2022-11-30T02:10:30.766Z,23.88
2022-11-30T02:13:36.410Z,23.84
2022-11-30T02:16:20.743Z,23.83
2022-11-30T02:19:10.295Z,23.83
2022-11-30T02:21:50.700Z,23.82
2022-11-30T02:24:55.232Z,23.81
2022-11-30T02:27:47.987Z,23.80
2022-11-30T02:30:25.256Z,23.77
2022-11-30T02:33:03.901Z,23.76
2022-11-30T02:35:40.458Z,23.76
2022-11-30T02:38:12.093Z,23.76
2022-11-30T02:40:42.179Z,23.77
2022-11-30T02:43:12.789Z,23.77
2022-11-30T02:45:55.714Z,23.79
2022-11-30T02:48:35.256Z,23.79
2022-11-30T02:51:13.322Z,23.78
2022-11-30T02:53:46.161Z,23.78
2022-11-30T02:56:17.239Z,23.77
2022-11-30T02:58:48.034Z,23.76
2022-11-30T03:01:20.642Z,23.75
2022-11-30T03:03:51.394Z,23.73
2022-11-30T03:06:21.963Z,23.73
2022-11-30T03:08:52.498Z,23.72
2022-11-30T03:11:23.231Z,23.74
2022-11-30T03:13:53.957Z,23.74
2022-11-30T03:16:26.409Z,23.75
2022-11-30T03:18:57.453Z,23.75
2022-11-30T03:21:28.330Z,23.76
2022-11-30T03:23:58.226Z,23.76
2022-11-30T03:26:28.809Z,23.76
2022-11-30T03:28:58.931Z,23.75
2022-11-30T03:31:30.756Z,23.76
2022-11-30T03:34:01.563Z,23.76
2022-11-30T03:36:31.567Z,23.74
2022-11-30T03:39:12.318Z,23.75
2022-11-30T03:41:42.616Z,23.73
2022-11-30T03:44:12.243Z,23.74
2022-11-30T03:46:44.901Z,23.74
2022-11-30T03:49:15.674Z,23.74
2022-11-30T03:51:46.429Z,23.74
2022-11-30T03:54:17.119Z,23.75
2022-11-30T03:56:47.601Z,23.74
2022-11-30T03:59:19.921Z,23.75
2022-11-30T04:02:06.783Z,23.75
2022-11-30T04:04:37.597Z,23.75
2022-11-30T04:07:08.212Z,23.75
2022-11-30T04:09:38.908Z,23.75
2022-11-30T04:12:10.293Z,23.71
2022-11-30T04:14:40.946Z,23.70
2022-11-30T04:17:13.652Z,23.68
2022-11-30T04:19:44.230Z,23.67
2022-11-30T04:22:14.777Z,23.66
2022-11-30T04:24:44.684Z,23.65
2022-11-30T04:27:15.342Z,23.64
2022-11-30T04:29:46.215Z,23.66
2022-11-30T04:32:18.832Z,23.67
2022-11-30T04:34:49.663Z,23.66
2022-11-30T04:37:19.840Z,23.67
2022-11-30T04:39:50.537Z,23.68
2022-11-30T04:42:21.431Z,23.69
2022-11-30T04:44:51.905Z,23.72
2022-11-30T04:47:24.136Z,23.74
2022-11-30T04:49:54.262Z,23.74
2022-11-30T04:52:24.848Z,23.75
2022-11-30T04:54:56.654Z,23.77
2022-11-30T04:57:26.938Z,23.80
2022-11-30T04:59:57.041Z,23.82
2022-11-30T05:02:31.880Z,23.85
2022-11-30T05:05:03.128Z,23.89
2022-11-30T05:07:33.777Z,23.94
2022-11-30T05:10:04.498Z,24.00
2022-11-30T05:12:34.961Z,24.04
2022-11-30T05:15:06.293Z,24.08
2022-11-30T05:17:37.939Z,24.09
2022-11-30T05:20:10.581Z,24.12
2022-11-30T05:22:41.154Z,24.11
2022-11-30T05:25:13.011Z,24.13
2022-11-30T05:27:43.053Z,24.12
2022-11-30T05:30:14.514Z,24.11
2022-11-30T05:32:47.172Z,24.10
2022-11-30T05:35:17.910Z,24.08
2022-11-30T05:37:47.997Z,24.09
2022-11-30T05:40:18.868Z,24.09
2022-11-30T05:42:49.406Z,24.09
2022-11-30T05:45:20.249Z,24.09
2022-11-30T05:47:53.226Z,24.12
2022-11-30T05:50:23.661Z,24.11
2022-11-30T05:52:56.735Z,24.13
2022-11-30T05:55:27.011Z,24.14
2022-11-30T05:57:57.755Z,24.15
2022-11-30T06:00:28.575Z,24.14
2022-11-30T06:03:01.893Z,24.15
2022-11-30T06:05:32.796Z,24.15
2022-11-30T06:08:03.732Z,24.15
2022-11-30T06:10:34.641Z,24.17
2022-11-30T06:13:10.708Z,24.18
2022-11-30T06:15:41.624Z,24.18
2022-11-30T06:18:16.458Z,24.19
2022-11-30T06:20:47.344Z,24.21
2022-11-30T06:23:17.218Z,24.24
2022-11-30T06:25:47.307Z,24.26
2022-11-30T06:28:17.218Z,24.28
2022-11-30T06:30:47.696Z,24.30
2022-11-30T06:33:25.553Z,24.33
2022-11-30T06:35:56.083Z,24.34
2022-11-30T06:38:26.617Z,24.36
2022-11-30T06:40:57.406Z,24.38
2022-11-30T06:43:27.304Z,24.39
2022-11-30T06:45:58.128Z,24.41
2022-11-30T06:48:30.778Z,24.43
2022-11-30T06:51:01.321Z,24.44
2022-11-30T06:53:31.668Z,24.46
2022-11-30T06:56:06.859Z,24.46
2022-11-30T06:58:41.082Z,24.47
2022-11-30T07:01:15.745Z,24.48
2022-11-30T07:03:47.880Z,24.48
2022-11-30T07:06:19.147Z,24.48
2022-11-30T07:08:50.341Z,24.48
2022-11-30T07:11:20.828Z,24.50
2022-11-30T07:13:52.589Z,24.56
2022-11-30T07:16:22.672Z,24.73
2022-11-30T07:18:55.308Z,24.93
2022-11-30T07:21:25.034Z,25.06
2022-11-30T07:24:12.904Z,25.16
2022-11-30T07:26:46.294Z,25.21
2022-11-30T07:29:18.305Z,25.26
2022-11-30T07:31:56.058Z,25.28
2022-11-30T07:34:29.754Z,25.30
2022-11-30T07:37:03.220Z,25.32
2022-11-30T07:39:37.199Z,25.44
2022-11-30T07:42:12.959Z,25.63
2022-11-30T07:44:45.776Z,25.85
2022-11-30T07:47:20.468Z,25.99
2022-11-30T07:49:57.177Z,26.10
2022-11-30T07:52:31.029Z,26.17
2022-11-30T07:55:04.272Z,26.19
2022-11-30T07:57:36.944Z,26.20
2022-11-30T08:00:12.209Z,26.20
2022-11-30T08:02:43.373Z,26.21
2022-11-30T08:05:18.549Z,26.19
2022-11-30T08:07:55.442Z,26.19
2022-11-30T08:10:30.190Z,26.19
2022-11-30T08:13:02.951Z,26.17
2022-11-30T08:15:34.685Z,26.17
2022-11-30T08:18:08.411Z,26.14
2022-11-30T08:20:49.685Z,26.13
2022-11-30T08:23:20.492Z,26.12
2022-11-30T08:25:52.619Z,26.12
2022-11-30T08:28:24.043Z,26.13
2022-11-30T08:30:55.766Z,26.14
2022-11-30T08:33:30.624Z,26.18
2022-11-30T08:36:13.902Z,26.22
2022-11-30T08:38:48.294Z,26.24
2022-11-30T08:41:23.811Z,26.27
2022-11-30T08:43:57.055Z,26.31
2022-11-30T08:49:24.788Z,26.40
2022-11-30T08:52:17.440Z,26.47
2022-11-30T08:54:52.972Z,26.54
2022-11-30T08:57:28.960Z,26.61
2022-11-30T09:00:01.165Z,26.70
2022-11-30T09:02:35.384Z,26.76
2022-11-30T09:05:07.334Z,26.82
2022-11-30T09:07:42.388Z,26.87
2022-11-30T09:10:23.490Z,26.96
2022-11-30T09:12:55.083Z,27.02
2022-11-30T09:15:26.829Z,27.12
2022-11-30T09:18:00.859Z,27.23
2022-11-30T09:20:34.347Z,27.34
2022-11-30T09:23:07.639Z,27.48
2022-11-30T09:25:38.767Z,27.61
2022-11-30T09:28:12.257Z,27.75
2022-11-30T09:30:45.746Z,27.86
2022-11-30T09:33:16.452Z,27.97
2022-11-30T09:35:47.125Z,28.04
2022-11-30T09:38:18.925Z,28.11
2022-11-30T09:40:56.551Z,28.15
2022-11-30T09:43:44.719Z,28.15
2022-11-30T09:46:16.388Z,28.17
2022-11-30T09:49:02.744Z,28.18
2022-11-30T09:51:47.989Z,28.18
2022-11-30T09:54:35.738Z,28.17
2022-11-30T09:57:26.558Z,28.17
2022-11-30T10:00:00.891Z,28.14
2022-11-30T10:02:36.522Z,28.14
2022-11-30T10:05:15.590Z,28.12
2022-11-30T10:08:10.731Z,28.11
2022-11-30T10:10:49.013Z,28.06
2022-11-30T10:13:43.160Z,28.00
2022-11-30T10:16:28.303Z,27.95
2022-11-30T10:19:15.783Z,27.91
2022-11-30T10:22:10.957Z,27.85
2022-11-30T10:25:11.453Z,27.80
2022-11-30T10:27:54.361Z,27.75
2022-11-30T10:30:27.137Z,27.72
2022-11-30T10:33:03.126Z,27.71
2022-11-30T10:35:43.036Z,27.71
2022-11-30T10:38:22.460Z,27.72
2022-11-30T10:41:00.610Z,27.69
2022-11-30T10:43:40.278Z,27.69
2022-11-30T10:46:21.435Z,27.67
2022-11-30T10:48:59.955Z,27.65
2022-11-30T10:51:31.088Z,27.63
2022-11-30T10:54:01.938Z,27.61
2022-11-30T10:56:32.264Z,27.57
2022-11-30T10:59:14.399Z,27.54
2022-11-30T11:01:44.998Z,27.50
2022-11-30T11:04:21.174Z,27.47
2022-11-30T11:06:56.116Z,27.44
2022-11-30T11:09:38.009Z,27.42
2022-11-30T11:12:17.531Z,27.41
2022-11-30T11:14:50.228Z,27.38
2022-11-30T11:17:29.540Z,27.37
2022-11-30T11:19:59.938Z,27.35
2022-11-30T11:22:34.528Z,27.34
2022-11-30T11:25:23.525Z,27.33
2022-11-30T11:27:58.160Z,27.31
2022-11-30T11:30:35.680Z,27.31
2022-11-30T11:33:22.338Z,27.29
2022-11-30T11:35:55.239Z,27.29
2022-11-30T11:38:30.161Z,27.29
2022-11-30T11:41:05.503Z,27.31
2022-11-30T11:43:42.846Z,27.31
2022-11-30T11:46:16.828Z,27.32
2022-11-30T11:49:00.188Z,27.32
2022-11-30T11:51:36.341Z,27.32
2022-11-30T11:54:30.435Z,27.32
2022-11-30T11:57:02.375Z,27.32
2022-11-30T11:59:49.996Z,27.35
2022-11-30T12:02:36.364Z,27.35
2022-11-30T12:05:17.294Z,27.35
2022-11-30T12:08:09.101Z,27.37
2022-11-30T12:10:52.578Z,27.37
2022-11-30T12:13:29.671Z,27.36
2022-11-30T12:16:12.710Z,27.36
2022-11-30T12:18:57.603Z,27.35
2022-11-30T12:21:47.592Z,27.34
2022-11-30T12:24:54.511Z,27.33
2022-11-30T12:27:42.982Z,27.34
2022-11-30T12:30:22.289Z,27.35
2022-11-30T12:33:15.304Z,27.36
2022-11-30T12:36:08.575Z,27.37
2022-11-30T12:38:50.808Z,27.38
2022-11-30T12:41:39.251Z,27.37
2022-11-30T12:44:35.596Z,27.37
2022-11-30T12:47:28.000Z,27.36
2022-11-30T12:50:25.920Z,27.35
2022-11-30T12:53:08.856Z,27.35
2022-11-30T12:55:50.816Z,27.35
2022-11-30T12:58:37.437Z,27.33
2022-11-30T13:01:36.404Z,27.31
2022-11-30T13:04:17.253Z,27.28
2022-11-30T13:06:54.122Z,27.26
2022-11-30T13:09:35.772Z,27.27
2022-11-30T13:12:13.807Z,27.26
2022-11-30T13:14:45.755Z,27.26
2022-11-30T13:17:21.429Z,27.27
2022-11-30T13:20:04.675Z,27.27
2022-11-30T13:22:48.466Z,27.27
2022-11-30T13:26:06.147Z,27.28
2022-11-30T13:28:33.998Z,27.28
2022-11-30T13:31:13.341Z,27.27
2022-11-30T13:33:51.869Z,27.25
2022-11-30T13:36:34.181Z,27.25
2022-11-30T13:39:29.329Z,27.23
2022-11-30T13:42:57.394Z,27.21
2022-11-30T13:45:35.137Z,27.20
2022-11-30T13:48:32.673Z,27.20
2022-11-30T13:51:03.521Z,27.17
2022-11-30T13:53:37.845Z,27.15
2022-11-30T13:56:24.727Z,27.12
2022-11-30T13:59:47.366Z,27.09
2022-11-30T14:02:54.795Z,27.05
2022-11-30T14:05:37.304Z,27.04
2022-11-30T14:08:37.969Z,27.04
2022-11-30T14:11:41.370Z,27.03
2022-11-30T14:14:49.923Z,27.01
2022-11-30T14:17:26.116Z,27.01
2022-11-30T14:20:02.746Z,27.02
2022-11-30T14:22:34.189Z,27.03
2022-11-30T14:25:05.478Z,27.03
2022-11-30T14:27:39.300Z,27.04
2022-11-30T14:30:22.252Z,27.05
2022-11-30T14:33:07.006Z,27.04
2022-11-30T14:35:40.591Z,27.03
2022-11-30T14:38:26.321Z,27.02
2022-11-30T14:40:58.341Z,27.01
2022-11-30T14:43:30.267Z,27.01
2022-11-30T14:46:07.283Z,27.02
2022-11-30T14:48:40.762Z,27.00
2022-11-30T14:51:14.349Z,27.00
2022-11-30T14:53:56.240Z,27.00
2022-11-30T14:56:39.712Z,26.99
2022-11-30T14:59:31.529Z,26.98
2022-11-30T15:02:07.088Z,26.96
2022-11-30T15:04:39.826Z,26.95
2022-11-30T15:07:18.362Z,26.95
2022-11-30T15:09:55.748Z,26.94
2022-11-30T15:12:28.110Z,26.93
2022-11-30T15:15:17.120Z,26.92
2022-11-30T15:17:56.577Z,26.90
2022-11-30T15:20:33.038Z,26.89
2022-11-30T15:23:03.919Z,26.88
2022-11-30T15:25:42.420Z,26.88
2022-11-30T15:28:17.703Z,26.85
2022-11-30T15:30:51.406Z,26.85
2022-11-30T15:33:32.187Z,26.84
2022-11-30T15:36:19.201Z,26.83
2022-11-30T15:38:55.116Z,26.81
2022-11-30T15:41:27.959Z,26.80
2022-11-30T15:44:00.098Z,26.80
2022-11-30T15:46:44.271Z,26.78
2022-11-30T15:49:28.275Z,26.76
2022-11-30T15:52:09.598Z,26.75
2022-11-30T15:54:53.150Z,26.73
2022-11-30T15:57:25.292Z,26.71
2022-11-30T16:00:21.683Z,26.70
2022-11-30T16:02:52.531Z,26.69
2022-11-30T16:05:28.764Z,26.68
2022-11-30T16:08:03.853Z,26.66
2022-11-30T16:10:39.612Z,26.66
2022-11-30T16:13:10.761Z,26.64
2022-11-30T16:15:41.124Z,26.64
2022-11-30T16:18:19.419Z,26.61
2022-11-30T16:20:55.163Z,26.62
2022-11-30T16:23:26.357Z,26.59
2022-11-30T16:25:57.329Z,26.55
2022-11-30T16:28:27.923Z,26.54
2022-11-30T16:31:02.239Z,26.54
2022-11-30T16:33:32.224Z,26.51
2022-11-30T16:36:09.988Z,26.50
2022-11-30T16:38:40.027Z,26.46
2022-11-30T16:41:18.898Z,26.44
2022-11-30T16:43:51.482Z,26.43
2022-11-30T16:46:25.455Z,26.42
2022-11-30T16:48:56.318Z,26.41
2022-11-30T16:51:31.932Z,26.40
2022-11-30T16:54:02.436Z,26.38
2022-11-30T16:56:32.478Z,26.37
2022-11-30T16:59:03.099Z,26.37
2022-11-30T17:01:37.329Z,26.35
2022-11-30T17:04:19.957Z,26.35
2022-11-30T17:06:58.766Z,26.33
2022-11-30T17:09:34.849Z,26.32
2022-11-30T17:12:05.435Z,26.30
2022-11-30T17:14:35.833Z,26.29
2022-11-30T17:17:06.293Z,26.28
2022-11-30T17:19:38.192Z,26.27
2022-11-30T17:22:10.454Z,26.26
2022-11-30T17:24:40.840Z,26.23
2022-11-30T17:27:12.358Z,26.24
2022-11-30T17:29:43.651Z,26.22
2022-11-30T17:32:13.961Z,26.22
2022-11-30T17:34:44.865Z,26.20
2022-11-30T17:37:16.985Z,26.19
2022-11-30T17:39:47.460Z,26.19
2022-11-30T17:42:18.541Z,26.17
2022-11-30T17:44:49.784Z,26.16
2022-11-30T17:47:22.571Z,26.14
2022-11-30T17:49:53.511Z,26.12
2022-11-30T17:52:26.009Z,26.12
2022-11-30T17:54:56.539Z,26.10
2022-11-30T17:57:26.113Z,26.09
2022-11-30T17:59:56.528Z,26.09
2022-11-30T18:02:26.636Z,26.08
2022-11-30T18:04:57.452Z,26.06
2022-11-30T18:07:29.617Z,26.05
2022-11-30T18:10:02.132Z,26.03
2022-11-30T18:12:31.797Z,26.01
2022-11-30T18:15:02.342Z,26.00
2022-11-30T18:17:33.635Z,25.99
2022-11-30T18:20:04.384Z,25.98
2022-11-30T18:22:36.493Z,25.98
2022-11-30T18:25:07.818Z,25.97
2022-11-30T18:27:38.604Z,25.97
2022-11-30T18:30:11.084Z,25.96
2022-11-30T18:32:41.928Z,25.96
2022-11-30T18:35:13.411Z,25.95
2022-11-30T18:37:46.039Z,25.95
2022-11-30T18:40:17.165Z,25.94
2022-11-30T18:42:49.892Z,25.93
2022-11-30T18:45:20.652Z,25.92
2022-11-30T18:47:50.591Z,25.91
2022-11-30T18:50:21.549Z,25.92
2022-11-30T18:52:55.275Z,25.90
2022-11-30T18:55:26.868Z,25.90
2022-11-30T18:57:58.308Z,25.86
2022-11-30T19:00:29.466Z,25.83
2022-11-30T19:03:00.421Z,25.81
2022-11-30T19:05:38.656Z,25.79
2022-11-30T19:08:16.208Z,25.77
2022-11-30T19:10:46.863Z,25.76
2022-11-30T19:13:16.924Z,25.74
2022-11-30T19:15:47.332Z,25.71
2022-11-30T19:18:22.894Z,25.68
2022-11-30T19:20:53.787Z,25.64
2022-11-30T19:23:26.480Z,25.62
2022-11-30T19:26:03.280Z,25.60
2022-11-30T19:28:35.722Z,25.60
2022-11-30T19:31:12.558Z,25.60
2022-11-30T19:33:46.627Z,25.57
2022-11-30T19:36:19.863Z,25.58
2022-11-30T19:38:52.447Z,25.57
2022-11-30T19:41:23.803Z,25.55
2022-11-30T19:44:03.093Z,25.54
2022-11-30T19:46:34.996Z,25.53
2022-11-30T19:49:07.707Z,25.52
2022-11-30T19:51:38.785Z,25.52
2022-11-30T19:54:10.671Z,25.50
2022-11-30T19:56:43.040Z,25.48
2022-11-30T19:59:13.640Z,25.48
2022-11-30T20:01:44.504Z,25.46
2022-11-30T20:04:14.696Z,25.45
2022-11-30T20:06:45.706Z,25.44
2022-11-30T20:09:18.366Z,25.43
2022-11-30T20:11:48.966Z,25.40
2022-11-30T20:14:22.832Z,25.37
2022-11-30T20:16:53.547Z,25.35
2022-11-30T20:19:24.952Z,25.33
2022-11-30T20:21:55.642Z,25.31
2022-11-30T20:24:28.018Z,25.30
2022-11-30T20:26:58.876Z,25.29
2022-11-30T20:29:29.356Z,25.28
2022-11-30T20:32:00.434Z,25.28
2022-11-30T20:34:34.643Z,25.27
2022-11-30T20:37:06.597Z,25.26
2022-11-30T20:39:44.054Z,25.26
2022-11-30T20:42:16.205Z,25.24
2022-11-30T20:44:46.453Z,25.25
2022-11-30T20:47:16.880Z,25.23
2022-11-30T20:49:48.477Z,25.24
2022-11-30T20:52:18.674Z,25.23
2022-11-30T20:54:51.313Z,25.22
2022-11-30T20:57:21.301Z,25.21
2022-11-30T20:59:52.073Z,25.21
2022-11-30T21:02:22.325Z,25.21
2022-11-30T21:04:53.097Z,25.20
2022-11-30T21:07:23.200Z,25.20
2022-11-30T21:09:55.997Z,25.17
2022-11-30T21:12:26.049Z,25.16
2022-11-30T21:14:56.413Z,25.15
2022-11-30T21:17:27.081Z,25.14
2022-11-30T21:19:57.810Z,25.13
2022-11-30T21:22:30.331Z,25.11
2022-11-30T21:25:02.729Z,25.07
2022-11-30T21:27:32.748Z,25.05
2022-11-30T21:30:02.761Z,25.01
2022-11-30T21:32:32.744Z,25.00
2022-11-30T21:35:02.999Z,24.99
2022-11-30T21:37:33.288Z,24.99
2022-11-30T21:40:05.538Z,24.98
2022-11-30T21:42:35.456Z,24.96
2022-11-30T21:45:19.498Z,24.96
2022-11-30T21:47:49.686Z,24.95
2022-11-30T21:50:23.094Z,24.95
2022-11-30T21:52:57.091Z,24.94
2022-11-30T21:55:29.237Z,24.93
2022-11-30T21:57:59.634Z,24.93
2022-11-30T22:00:30.080Z,24.92
2022-11-30T22:03:00.231Z,24.91
2022-11-30T22:05:30.367Z,24.91
2022-11-30T22:08:00.791Z,24.90
2022-11-30T22:10:32.805Z,24.89
2022-11-30T22:13:02.313Z,24.88
2022-11-30T22:15:32.334Z,24.87
2022-11-30T22:18:02.357Z,24.85
2022-11-30T22:20:32.826Z,24.85
2022-11-30T22:23:03.845Z,24.83
2022-11-30T22:25:36.412Z,24.80
2022-11-30T22:28:07.218Z,24.78
2022-11-30T22:30:44.673Z,24.76
2022-11-30T22:33:14.639Z,24.73
2022-11-30T22:35:44.709Z,24.69
2022-11-30T22:38:16.791Z,24.65
2022-11-30T22:40:49.399Z,24.60
2022-11-30T22:43:19.229Z,24.58
2022-11-30T22:45:49.787Z,24.57
2022-11-30T22:48:20.435Z,24.56
2022-11-30T22:50:50.688Z,24.55
2022-11-30T22:53:20.792Z,24.54
2022-11-30T22:55:52.802Z,24.54
2022-11-30T22:58:23.353Z,24.53
2022-11-30T23:01:06.832Z,24.51
2022-11-30T23:03:37.140Z,24.48
2022-11-30T23:06:08.323Z,24.48
2022-11-30T23:08:39.989Z,24.46
2022-11-30T23:11:14.571Z,24.45
2022-11-30T23:13:46.449Z,24.40
2022-11-30T23:16:17.620Z,24.35
2022-11-30T23:18:50.944Z,24.32
2022-11-30T23:21:25.314Z,24.29
2022-11-30T23:23:56.851Z,24.26
2022-11-30T23:26:31.899Z,24.25
2022-11-30T23:29:05.731Z,24.21
2022-11-30T23:31:40.481Z,24.21
2022-11-30T23:34:20.249Z,24.21
2022-11-30T23:36:51.641Z,24.20
2022-11-30T23:39:23.770Z,24.21
2022-11-30T23:41:56.112Z,24.22
2022-11-30T23:44:26.388Z,24.21
2022-11-30T23:46:56.945Z,24.21
2022-11-30T23:49:28.027Z,24.21
2022-11-30T23:51:58.938Z,24.22
2022-11-30T23:54:28.982Z,24.22
2022-11-30T23:57:01.748Z,24.22
2022-11-30T23:59:32.226Z,24.22
